Overview Statistics Trail Chart Weather Telemetry Raw packets
 

This is the latest recevied weather packets stored in our database for station/object G8PZT. If no packets are shown the sender has not sent any weather packets the latest 10 day(s).

<< 3 4 5 6 7 8 9 >>
Time Temp. Humidity Pressure Rain* Wind** Luminosity Snow
1788545920 16.67° C 38% - 0 mm - - -
1788545320 17.22° C 35% - 0 mm - - -
1788544720 18.33° C 31% - 0 mm - - -
1788544120 19.44° C 28% - 0 mm - - -
1788543602 18.89° C 29% - 0 mm - - -
1788543521 18.89° C 29% - 0 mm - - -
1788542941 20° C 26% - 0 mm - - -
1788542405 18.89° C 29% - 0 mm - - -
1788542321 18.89° C 29% - 0 mm - - -
1788540521 18.89° C 31% - 0 mm - - -
1788540002 18.33° C 30% - 0 mm - - -
1788539921 18.33° C 30% - 0 mm - - -
1788539321 18.33° C 30% - 0 mm - - -
1788538802 18.33° C 29% - 0 mm - - -
1788538720 18.33° C 30% - 0 mm - - -
1788538120 18.33° C 29% - 0 mm - - -
1788537602 18.33° C 29% - 0 mm - - -
1788537520 18.33° C 29% - 0 mm - - -
1788536920 18.33° C 29% - 0 mm - - -
1788536402 18.89° C 29% - 0 mm - - -
1788536321 18.89° C 29% - 0 mm - - -
1788535721 18.89° C 27% - 0 mm - - -
1788535221 18.89° C 27% - 0 mm - - -
1788535121 18.89° C 27% - 0 mm - - -
1788534003 18.89° C 29% - 0 mm - - -

* Rain latest hour (hover to see other rain measurements)
** Current wind speed in m/s (hover to see current wind gust speed)